sensor_id;sensor_type;location;lat;lon;timestamp;pressure;altitude;pressure_sealevel;temperature;humidity
23361;BME280;11852;50.082;18.554;2023-01-29T00:00:21;99532.5;;;-1.04;81.18
23361;BME280;11852;50.082;18.554;2023-01-29T00:01:29;99528.0;;;-1.04;81.21
23361;BME280;11852;50.082;18.554;2023-01-29T00:02:37;99528.0;;;-1.04;81.21
23361;BME280;11852;50.082;18.554;2023-01-29T00:03:44;99526.5;;;-1.01;81.01
23361;BME280;11852;50.082;18.554;2023-01-29T00:04:52;99525.0;;;-0.93;80.44
23361;BME280;11852;50.082;18.554;2023-01-29T00:06:04;99528.0;;;-0.77;80.19
23361;BME280;11852;50.082;18.554;2023-01-29T00:07:12;99532.0;;;-0.71;80.25
23361;BME280;11852;50.082;18.554;2023-01-29T00:08:21;99529.0;;;-0.74;80.58
23361;BME280;11852;50.082;18.554;2023-01-29T00:09:28;99532.0;;;-0.96;81.02
23361;BME280;11852;50.082;18.554;2023-01-29T00:10:36;99527.5;;;-1.1;81.1
23361;BME280;11852;50.082;18.554;2023-01-29T00:11:43;99531.5;;;-1.06;80.78
23361;BME280;11852;50.082;18.554;2023-01-29T00:12:50;99531.0;;;-1.02;81.0
23361;BME280;11852;50.082;18.554;2023-01-29T00:13:58;99532.99;;;-0.96;80.48
23361;BME280;11852;50.082;18.554;2023-01-29T00:15:06;99532.0;;;-1.06;80.81
23361;BME280;11852;50.082;18.554;2023-01-29T00:16:14;99535.0;;;-1.04;81.04
23361;BME280;11852;50.082;18.554;2023-01-29T00:17:21;99529.51;;;-1.21;82.07
23361;BME280;11852;50.082;18.554;2023-01-29T00:18:29;99529.51;;;-0.95;81.37
23361;BME280;11852;50.082;18.554;2023-01-29T00:19:36;99527.5;;;-0.74;80.99
23361;BME280;11852;50.082;18.554;2023-01-29T00:20:44;99529.0;;;-0.71;81.04
23361;BME280;11852;50.082;18.554;2023-01-29T00:21:51;99532.0;;;-0.87;81.57
23361;BME280;11852;50.082;18.554;2023-01-29T00:22:58;99534.5;;;-0.73;80.98
23361;BME280;11852;50.082;18.554;2023-01-29T00:24:05;99539.5;;;-0.83;81.32
23361;BME280;11852;50.082;18.554;2023-01-29T00:25:14;99541.5;;;-0.69;80.67
23361;BME280;11852;50.082;18.554;2023-01-29T00:26:22;99543.01;;;-0.54;80.14
23361;BME280;11852;50.082;18.554;2023-01-29T00:27:30;99549.5;;;-0.56;80.18
23361;BME280;11852;50.082;18.554;2023-01-29T00:28:37;99552.5;;;-0.69;80.04
23361;BME280;11852;50.082;18.554;2023-01-29T00:29:44;99550.5;;;-0.9;80.63
23361;BME280;11852;50.082;18.554;2023-01-29T00:30:52;99559.5;;;-1.14;81.3
23361;BME280;11852;50.082;18.554;2023-01-29T00:31:59;99555.0;;;-1.26;81.59
23361;BME280;11852;50.082;18.554;2023-01-29T00:33:06;99554.51;;;-1.06;81.07
23361;BME280;11852;50.082;18.554;2023-01-29T00:34:14;99551.0;;;-0.81;80.62
23361;BME280;11852;50.082;18.554;2023-01-29T00:35:22;99554.51;;;-0.91;80.74
23361;BME280;11852;50.082;18.554;2023-01-29T00:36:30;99553.5;;;-1.08;81.25
23361;BME280;11852;50.082;18.554;2023-01-29T00:37:37;99553.5;;;-0.89;80.63
23361;BME280;11852;50.082;18.554;2023-01-29T00:38:44;99555.01;;;-0.97;80.88
23361;BME280;11852;50.082;18.554;2023-01-29T00:39:51;99557.0;;;-0.86;80.11
23361;BME280;11852;50.082;18.554;2023-01-29T00:41:09;99563.5;;;-0.74;80.1
23361;BME280;11852;50.082;18.554;2023-01-29T00:42:20;99564.5;;;-0.77;80.14
23361;BME280;11852;50.082;18.554;2023-01-29T00:43:33;99565.0;;;-0.78;80.03
23361;BME280;11852;50.082;18.554;2023-01-29T00:44:47;99563.5;;;-0.78;79.88
23361;BME280;11852;50.082;18.554;2023-01-29T00:45:55;99559.5;;;-0.98;79.43
23361;BME280;11852;50.082;18.554;2023-01-29T00:47:03;99559.5;;;-1.12;79.7
23361;BME280;11852;50.082;18.554;2023-01-29T00:48:12;99558.0;;;-1.19;79.9
23361;BME280;11852;50.082;18.554;2023-01-29T00:49:19;99556.0;;;-1.26;79.93
23361;BME280;11852;50.082;18.554;2023-01-29T00:50:27;99558.0;;;-1.03;79.35
23361;BME280;11852;50.082;18.554;2023-01-29T00:51:35;99555.5;;;-0.92;79.16
23361;BME280;11852;50.082;18.554;2023-01-29T00:52:42;99557.5;;;-0.88;78.93
23361;BME280;11852;50.082;18.554;2023-01-29T00:53:49;99557.0;;;-0.76;78.9
23361;BME280;11852;50.082;18.554;2023-01-29T00:54:57;99563.0;;;-0.83;78.99
23361;BME280;11852;50.082;18.554;2023-01-29T00:56:05;99562.0;;;-0.98;79.21
23361;BME280;11852;50.082;18.554;2023-01-29T00:57:12;99556.5;;;-0.89;78.72
23361;BME280;11852;50.082;18.554;2023-01-29T00:58:20;99559.0;;;-0.73;78.55
23361;BME280;11852;50.082;18.554;2023-01-29T00:59:29;99562.0;;;-0.99;78.89
23361;BME280;11852;50.082;18.554;2023-01-29T01:00:36;99560.5;;;-0.9;78.31
23361;BME280;11852;50.082;18.554;2023-01-29T01:01:50;99563.5;;;-0.86;78.14
23361;BME280;11852;50.082;18.554;2023-01-29T01:03:02;99560.5;;;-0.93;78.05
23361;BME280;11852;50.082;18.554;2023-01-29T01:04:10;99559.0;;;-1.11;77.85
23361;BME280;11852;50.082;18.554;2023-01-29T01:05:17;99563.0;;;-1.64;78.12
23361;BME280;11852;50.082;18.554;2023-01-29T01:06:25;99567.01;;;-1.51;77.35
23361;BME280;11852;50.082;18.554;2023-01-29T01:07:32;99565.0;;;-1.5;77.21
23361;BME280;11852;50.082;18.554;2023-01-29T01:08:45;99563.5;;;-1.58;77.09
23361;BME280;11852;50.082;18.554;2023-01-29T01:09:58;99564.0;;;-1.37;76.94
23361;BME280;11852;50.082;18.554;2023-01-29T01:11:05;99571.5;;;-1.33;76.66
23361;BME280;11852;50.082;18.554;2023-01-29T01:12:13;99573.0;;;-1.46;76.75
23361;BME280;11852;50.082;18.554;2023-01-29T01:13:20;99576.5;;;-1.41;76.32
23361;BME280;11852;50.082;18.554;2023-01-29T01:14:27;99576.0;;;-1.19;75.82
23361;BME280;11852;50.082;18.554;2023-01-29T01:15:36;99577.0;;;-1.44;76.29
23361;BME280;11852;50.082;18.554;2023-01-29T01:16:41;99579.51;;;-1.46;76.41
23361;BME280;11852;50.082;18.554;2023-01-29T01:17:52;99581.5;;;-1.39;76.07
23361;BME280;11852;50.082;18.554;2023-01-29T01:19:01;99580.01;;;-1.32;76.15
23361;BME280;11852;50.082;18.554;2023-01-29T01:20:10;99577.0;;;-1.49;76.62
23361;BME280;11852;50.082;18.554;2023-01-29T01:21:16;99578.5;;;-1.53;76.67
23361;BME280;11852;50.082;18.554;2023-01-29T01:22:24;99577.5;;;-1.63;77.08
23361;BME280;11852;50.082;18.554;2023-01-29T01:23:33;99574.5;;;-1.61;77.02
23361;BME280;11852;50.082;18.554;2023-01-29T01:24:40;99571.5;;;-1.42;76.74
23361;BME280;11852;50.082;18.554;2023-01-29T01:25:47;99569.5;;;-1.34;76.5
23361;BME280;11852;50.082;18.554;2023-01-29T01:26:55;99569.99;;;-1.36;76.49
23361;BME280;11852;50.082;18.554;2023-01-29T01:28:02;99564.0;;;-1.6;76.82
23361;BME280;11852;50.082;18.554;2023-01-29T01:29:09;99569.0;;;-1.26;76.11
23361;BME280;11852;50.082;18.554;2023-01-29T01:30:17;99569.5;;;-1.4;76.29
23361;BME280;11852;50.082;18.554;2023-01-29T01:31:24;99571.0;;;-1.26;75.74
23361;BME280;11852;50.082;18.554;2023-01-29T01:32:33;99573.0;;;-1.47;75.51
23361;BME280;11852;50.082;18.554;2023-01-29T01:33:40;99570.49;;;-1.5;75.55
23361;BME280;11852;50.082;18.554;2023-01-29T01:34:47;99567.01;;;-1.46;75.46
23361;BME280;11852;50.082;18.554;2023-01-29T01:35:59;99566.5;;;-1.66;75.38
23361;BME280;11852;50.082;18.554;2023-01-29T01:37:03;99568.5;;;-1.65;74.67
23361;BME280;11852;50.082;18.554;2023-01-29T01:38:10;99567.51;;;-1.66;73.57
23361;BME280;11852;50.082;18.554;2023-01-29T01:39:18;99563.5;;;-1.66;73.7
23361;BME280;11852;50.082;18.554;2023-01-29T01:40:25;99565.0;;;-1.57;73.79
23361;BME280;11852;50.082;18.554;2023-01-29T01:41:32;99567.0;;;-1.67;74.32
23361;BME280;11852;50.082;18.554;2023-01-29T01:42:43;99563.5;;;-1.5;73.61
23361;BME280;11852;50.082;18.554;2023-01-29T01:43:56;99557.49;;;-1.5;73.18
23361;BME280;11852;50.082;18.554;2023-01-29T01:45:04;99561.5;;;-1.48;72.82
23361;BME280;11852;50.082;18.554;2023-01-29T01:46:09;99556.0;;;-1.36;71.32
23361;BME280;11852;50.082;18.554;2023-01-29T01:48:37;99559.5;;;-1.38;70.19
23361;BME280;11852;50.082;18.554;2023-01-29T01:49:44;99559.0;;;-1.19;69.45
23361;BME280;11852;50.082;18.554;2023-01-29T01:50:57;99556.0;;;-1.09;68.99
23361;BME280;11852;50.082;18.554;2023-01-29T01:52:04;99552.0;;;-1.25;67.82
23361;BME280;11852;50.082;18.554;2023-01-29T01:53:15;99553.5;;;-1.12;67.24
23361;BME280;11852;50.082;18.554;2023-01-29T01:55:37;99553.0;;;-0.82;66.78
23361;BME280;11852;50.082;18.554;2023-01-29T01:56:46;99554.0;;;-0.76;66.79
23361;BME280;11852;50.082;18.554;2023-01-29T01:57:54;99550.5;;;-0.8;66.69
23361;BME280;11852;50.082;18.554;2023-01-29T01:58:59;99550.0;;;-0.95;67.11
23361;BME280;11852;50.082;18.554;2023-01-29T02:00:09;99545.5;;;-0.99;67.32
23361;BME280;11852;50.082;18.554;2023-01-29T02:01:16;99552.5;;;-1.09;67.43
23361;BME280;11852;50.082;18.554;2023-01-29T02:02:28;99554.0;;;-1.11;67.68
23361;BME280;11852;50.082;18.554;2023-01-29T02:03:45;99545.49;;;-1.02;67.65
23361;BME280;11852;50.082;18.554;2023-01-29T02:04:53;99542.01;;;-1.32;67.5
23361;BME280;11852;50.082;18.554;2023-01-29T02:06:06;99535.0;;;-1.08;66.48
23361;BME280;11852;50.082;18.554;2023-01-29T02:07:19;99532.49;;;-1.04;66.64
23361;BME280;11852;50.082;18.554;2023-01-29T02:08:39;99525.5;;;-0.94;66.44
23361;BME280;11852;50.082;18.554;2023-01-29T02:11:00;99519.0;;;-0.96;66.39
23361;BME280;11852;50.082;18.554;2023-01-29T02:12:09;99524.0;;;-0.86;66.22
23361;BME280;11852;50.082;18.554;2023-01-29T02:13:18;99525.5;;;-0.71;66.08
23361;BME280;11852;50.082;18.554;2023-01-29T02:14:25;99524.5;;;-0.63;66.27
23361;BME280;11852;50.082;18.554;2023-01-29T02:15:33;99525.5;;;-0.55;66.31
23361;BME280;11852;50.082;18.554;2023-01-29T02:16:40;99525.0;;;-0.54;66.04
23361;BME280;11852;50.082;18.554;2023-01-29T02:17:49;99526.5;;;-0.56;65.89
23361;BME280;11852;50.082;18.554;2023-01-29T02:18:56;99531.5;;;-0.58;65.83
23361;BME280;11852;50.082;18.554;2023-01-29T02:20:09;99528.0;;;-0.84;65.98
23361;BME280;11852;50.082;18.554;2023-01-29T02:29:01;99521.0;;;-0.57;65.78
23361;BME280;11852;50.082;18.554;2023-01-29T02:32:50;99510.0;;;-1.29;66.28
23361;BME280;11852;50.082;18.554;2023-01-29T02:35:18;99502.5;;;-1.08;65.72
23361;BME280;11852;50.082;18.554;2023-01-29T02:36:33;99502.5;;;-0.97;65.66
23361;BME280;11852;50.082;18.554;2023-01-29T02:37:40;99499.5;;;-0.77;65.81
23361;BME280;11852;50.082;18.554;2023-01-29T02:42:46;99491.5;;;-0.9;66.07
23361;BME280;11852;50.082;18.554;2023-01-29T02:44:14;99494.5;;;-0.81;65.83
23361;BME280;11852;50.082;18.554;2023-01-29T02:46:31;99497.5;;;-0.92;65.03
23361;BME280;11852;50.082;18.554;2023-01-29T02:48:13;99493.5;;;-0.88;64.81
23361;BME280;11852;50.082;18.554;2023-01-29T02:48:44;99497.0;;;-0.92;65.35
23361;BME280;11852;50.082;18.554;2023-01-29T02:49:59;99498.5;;;-0.93;65.17
23361;BME280;11852;50.082;18.554;2023-01-29T02:51:09;99499.0;;;-1.13;65.57
23361;BME280;11852;50.082;18.554;2023-01-29T02:52:16;99503.5;;;-0.98;65.08
23361;BME280;11852;50.082;18.554;2023-01-29T02:54:50;99512.0;;;-0.94;65.67
23361;BME280;11852;50.082;18.554;2023-01-29T02:56:01;99512.5;;;-0.84;65.71
23361;BME280;11852;50.082;18.554;2023-01-29T02:59:34;99512.0;;;-0.65;65.57
23361;BME280;11852;50.082;18.554;2023-01-29T03:00:43;99515.5;;;-0.73;65.78
23361;BME280;11852;50.082;18.554;2023-01-29T03:01:57;99512.5;;;-0.9;65.72
23361;BME280;11852;50.082;18.554;2023-01-29T03:03:07;99515.5;;;-0.91;64.72
23361;BME280;11852;50.082;18.554;2023-01-29T03:04:15;99511.5;;;-1.04;65.26
23361;BME280;11852;50.082;18.554;2023-01-29T03:05:21;99517.51;;;-1.09;65.09
23361;BME280;11852;50.082;18.554;2023-01-29T03:06:32;99521.0;;;-1.36;65.61
23361;BME280;11852;50.082;18.554;2023-01-29T03:10:20;99524.5;;;-1.17;65.59
23361;BME280;11852;50.082;18.554;2023-01-29T03:11:29;99523.0;;;-1.04;65.57
23361;BME280;11852;50.082;18.554;2023-01-29T03:12:35;99524.0;;;-0.85;65.31
23361;BME280;11852;50.082;18.554;2023-01-29T03:15:01;99522.0;;;-1.23;66.21
23361;BME280;11852;50.082;18.554;2023-01-29T03:16:14;99519.49;;;-1.03;65.58
23361;BME280;11852;50.082;18.554;2023-01-29T03:17:21;99518.0;;;-0.98;65.81
23361;BME280;11852;50.082;18.554;2023-01-29T03:18:31;99515.5;;;-0.86;65.22
23361;BME280;11852;50.082;18.554;2023-01-29T03:19:40;99520.5;;;-0.72;64.82
23361;BME280;11852;50.082;18.554;2023-01-29T03:20:50;99520.5;;;-0.74;64.88
23361;BME280;11852;50.082;18.554;2023-01-29T03:21:59;99522.5;;;-0.78;64.81
23361;BME280;11852;50.082;18.554;2023-01-29T03:23:12;99526.0;;;-0.93;65.26
23361;BME280;11852;50.082;18.554;2023-01-29T03:25:36;99531.99;;;-0.69;64.97
23361;BME280;11852;50.082;18.554;2023-01-29T03:26:49;99529.0;;;-0.79;64.99
23361;BME280;11852;50.082;18.554;2023-01-29T03:28:03;99529.5;;;-1.03;65.23
23361;BME280;11852;50.082;18.554;2023-01-29T03:29:15;99532.0;;;-1.18;65.97
23361;BME280;11852;50.082;18.554;2023-01-29T03:30:29;99532.0;;;-1.01;65.46
23361;BME280;11852;50.082;18.554;2023-01-29T03:31:40;99533.5;;;-0.84;65.28
23361;BME280;11852;50.082;18.554;2023-01-29T03:32:48;99536.5;;;-0.71;65.1
23361;BME280;11852;50.082;18.554;2023-01-29T03:35:14;99542.5;;;-0.68;64.93
23361;BME280;11852;50.082;18.554;2023-01-29T03:38:42;99535.5;;;-0.56;64.88
23361;BME280;11852;50.082;18.554;2023-01-29T03:39:49;99535.0;;;-0.68;64.99
23361;BME280;11852;50.082;18.554;2023-01-29T03:47:16;99525.5;;;-0.59;64.68
23361;BME280;11852;50.082;18.554;2023-01-29T03:53:22;99509.5;;;-0.38;63.53
23361;BME280;11852;50.082;18.554;2023-01-29T03:54:30;99512.0;;;-0.34;63.43
23361;BME280;11852;50.082;18.554;2023-01-29T03:55:40;99509.5;;;-0.32;63.76
23361;BME280;11852;50.082;18.554;2023-01-29T03:56:56;99511.5;;;-0.34;63.83
23361;BME280;11852;50.082;18.554;2023-01-29T03:58:46;99512.5;;;-0.28;63.89
23361;BME280;11852;50.082;18.554;2023-01-29T04:00:38;99510.5;;;-0.19;64.12
23361;BME280;11852;50.082;18.554;2023-01-29T04:01:52;99509.5;;;-0.18;64.11
23361;BME280;11852;50.082;18.554;2023-01-29T04:04:20;99506.0;;;-0.16;64.49
23361;BME280;11852;50.082;18.554;2023-01-29T04:05:26;99503.5;;;-0.31;64.4
23361;BME280;11852;50.082;18.554;2023-01-29T04:06:32;99504.0;;;-0.34;64.72
23361;BME280;11852;50.082;18.554;2023-01-29T04:07:38;99502.5;;;-0.38;64.74
23361;BME280;11852;50.082;18.554;2023-01-29T04:08:57;99502.5;;;-0.3;64.82
23361;BME280;11852;50.082;18.554;2023-01-29T04:11:14;99497.0;;;-0.31;64.96
23361;BME280;11852;50.082;18.554;2023-01-29T04:12:28;99496.0;;;-0.31;64.71
23361;BME280;11852;50.082;18.554;2023-01-29T04:13:32;99498.0;;;-0.32;65.17
23361;BME280;11852;50.082;18.554;2023-01-29T04:14:40;99500.5;;;-0.29;65.28
23361;BME280;11852;50.082;18.554;2023-01-29T04:15:52;99501.0;;;-0.34;65.45
23361;BME280;11852;50.082;18.554;2023-01-29T04:16:58;99501.5;;;-0.28;65.44
23361;BME280;11852;50.082;18.554;2023-01-29T04:18:04;99499.5;;;-0.21;65.33
23361;BME280;11852;50.082;18.554;2023-01-29T04:19:11;99500.0;;;-0.23;65.41
23361;BME280;11852;50.082;18.554;2023-01-29T04:20:19;99491.0;;;-0.22;65.38
23361;BME280;11852;50.082;18.554;2023-01-29T04:21:26;99493.5;;;-0.2;65.17
23361;BME280;11852;50.082;18.554;2023-01-29T04:22:36;99493.0;;;-0.18;65.06
23361;BME280;11852;50.082;18.554;2023-01-29T04:23:44;99489.0;;;-0.13;65.04
23361;BME280;11852;50.082;18.554;2023-01-29T04:24:52;99486.5;;;-0.13;64.98
23361;BME280;11852;50.082;18.554;2023-01-29T04:27:25;99485.0;;;-0.31;64.96
23361;BME280;11852;50.082;18.554;2023-01-29T04:31:05;99472.5;;;-0.13;64.63
23361;BME280;11852;50.082;18.554;2023-01-29T04:37:15;99461.5;;;-0.02;64.69
23361;BME280;11852;50.082;18.554;2023-01-29T04:39:43;99454.0;;;-0.3;64.46
23361;BME280;11852;50.082;18.554;2023-01-29T04:43:26;99441.5;;;-0.38;64.43
23361;BME280;11852;50.082;18.554;2023-01-29T04:47:07;99436.0;;;-0.45;64.46
23361;BME280;11852;50.082;18.554;2023-01-29T04:49:31;99436.5;;;-0.34;64.07
23361;BME280;11852;50.082;18.554;2023-01-29T04:50:39;99439.0;;;-0.22;64.33
23361;BME280;11852;50.082;18.554;2023-01-29T04:51:51;99440.0;;;-0.16;64.44
23361;BME280;11852;50.082;18.554;2023-01-29T04:54:08;99439.0;;;-0.27;64.33
23361;BME280;11852;50.082;18.554;2023-01-29T04:59:00;99431.5;;;-0.61;64.31
23361;BME280;11852;50.082;18.554;2023-01-29T05:00:13;99429.5;;;-0.44;64.37
23361;BME280;11852;50.082;18.554;2023-01-29T05:01:19;99429.0;;;-0.41;64.6
23361;BME280;11852;50.082;18.554;2023-01-29T05:02:28;99427.0;;;-0.28;64.57
23361;BME280;11852;50.082;18.554;2023-01-29T05:03:35;99426.0;;;-0.24;64.65
23361;BME280;11852;50.082;18.554;2023-01-29T05:04:43;99428.0;;;-0.23;64.68
23361;BME280;11852;50.082;18.554;2023-01-29T05:05:51;99427.5;;;-0.19;64.53
23361;BME280;11852;50.082;18.554;2023-01-29T05:07:02;99426.0;;;-0.15;64.43
23361;BME280;11852;50.082;18.554;2023-01-29T05:08:09;99428.5;;;-0.23;64.68
23361;BME280;11852;50.082;18.554;2023-01-29T05:09:17;99428.0;;;-0.31;64.54
23361;BME280;11852;50.082;18.554;2023-01-29T05:10:26;99429.51;;;-0.31;64.24
23361;BME280;11852;50.082;18.554;2023-01-29T05:11:34;99430.5;;;-0.36;64.14
23361;BME280;11852;50.082;18.554;2023-01-29T05:12:43;99431.49;;;-0.25;64.13
23361;BME280;11852;50.082;18.554;2023-01-29T05:13:50;99435.5;;;-0.27;64.49
23361;BME280;11852;50.082;18.554;2023-01-29T05:14:59;99435.0;;;-0.22;64.76
23361;BME280;11852;50.082;18.554;2023-01-29T05:17:18;99437.5;;;-0.18;64.97
23361;BME280;11852;50.082;18.554;2023-01-29T05:18:27;99438.0;;;-0.16;64.89
23361;BME280;11852;50.082;18.554;2023-01-29T05:19:33;99437.0;;;-0.25;64.83
23361;BME280;11852;50.082;18.554;2023-01-29T05:20:42;99440.5;;;-0.24;64.76
23361;BME280;11852;50.082;18.554;2023-01-29T05:21:50;99439.0;;;-0.32;64.92
23361;BME280;11852;50.082;18.554;2023-01-29T05:22:58;99440.5;;;-0.25;64.85
23361;BME280;11852;50.082;18.554;2023-01-29T05:25:26;99441.5;;;-0.19;65.01
23361;BME280;11852;50.082;18.554;2023-01-29T05:26:34;99442.51;;;-0.21;65.13
23361;BME280;11852;50.082;18.554;2023-01-29T05:27:48;99443.51;;;-0.26;65.04
23361;BME280;11852;50.082;18.554;2023-01-29T05:28:56;99441.5;;;-0.21;65.19
23361;BME280;11852;50.082;18.554;2023-01-29T05:30:05;99443.5;;;-0.31;65.0
23361;BME280;11852;50.082;18.554;2023-01-29T05:31:13;99445.5;;;-0.26;65.0
23361;BME280;11852;50.082;18.554;2023-01-29T05:32:21;99442.51;;;-0.28;64.81
23361;BME280;11852;50.082;18.554;2023-01-29T05:33:29;99442.51;;;-0.33;64.56
23361;BME280;11852;50.082;18.554;2023-01-29T05:34:35;99441.0;;;-0.3;64.5
23361;BME280;11852;50.082;18.554;2023-01-29T05:35:42;99443.01;;;-0.22;64.64
23361;BME280;11852;50.082;18.554;2023-01-29T05:36:49;99443.51;;;-0.15;64.62
23361;BME280;11852;50.082;18.554;2023-01-29T05:37:57;99442.5;;;-0.11;64.69
23361;BME280;11852;50.082;18.554;2023-01-29T05:39:04;99448.0;;;-0.1;64.72
23361;BME280;11852;50.082;18.554;2023-01-29T05:40:13;99449.5;;;-0.27;65.14
23361;BME280;11852;50.082;18.554;2023-01-29T05:41:21;99449.5;;;-0.31;64.96
23361;BME280;11852;50.082;18.554;2023-01-29T05:42:29;99449.5;;;-0.36;65.0
23361;BME280;11852;50.082;18.554;2023-01-29T05:43:39;99445.5;;;-0.32;65.19
23361;BME280;11852;50.082;18.554;2023-01-29T05:44:46;99446.0;;;-0.35;65.18
23361;BME280;11852;50.082;18.554;2023-01-29T05:45:54;99444.5;;;-0.46;65.03
23361;BME280;11852;50.082;18.554;2023-01-29T05:47:01;99440.5;;;-0.39;65.01
23361;BME280;11852;50.082;18.554;2023-01-29T05:48:08;99438.5;;;-0.46;64.83
23361;BME280;11852;50.082;18.554;2023-01-29T05:49:16;99439.5;;;-0.29;64.39
23361;BME280;11852;50.082;18.554;2023-01-29T05:50:24;99440.0;;;-0.22;64.1
23361;BME280;11852;50.082;18.554;2023-01-29T05:51:31;99439.5;;;-0.21;63.83
23361;BME280;11852;50.082;18.554;2023-01-29T05:52:39;99439.5;;;-0.21;63.72
23361;BME280;11852;50.082;18.554;2023-01-29T05:53:47;99446.0;;;-0.17;63.69
23361;BME280;11852;50.082;18.554;2023-01-29T05:54:54;99442.5;;;-0.17;63.92
23361;BME280;11852;50.082;18.554;2023-01-29T05:56:02;99445.0;;;-0.18;63.9
23361;BME280;11852;50.082;18.554;2023-01-29T05:57:08;99446.0;;;-0.22;64.11
23361;BME280;11852;50.082;18.554;2023-01-29T05:58:16;99447.5;;;-0.32;64.06
23361;BME280;11852;50.082;18.554;2023-01-29T05:59:24;99445.5;;;-0.28;63.59
23361;BME280;11852;50.082;18.554;2023-01-29T06:00:31;99446.5;;;-0.26;63.53
23361;BME280;11852;50.082;18.554;2023-01-29T06:01:39;99446.5;;;-0.28;63.82
23361;BME280;11852;50.082;18.554;2023-01-29T06:02:46;99447.5;;;-0.53;64.0
23361;BME280;11852;50.082;18.554;2023-01-29T06:03:53;99448.0;;;-0.7;63.62
23361;BME280;11852;50.082;18.554;2023-01-29T06:05:01;99444.5;;;-0.56;63.45
23361;BME280;11852;50.082;18.554;2023-01-29T06:06:08;99448.5;;;-0.62;63.85
23361;BME280;11852;50.082;18.554;2023-01-29T06:07:17;99451.5;;;-0.56;63.32
23361;BME280;11852;50.082;18.554;2023-01-29T06:08:24;99456.5;;;-0.45;63.21
23361;BME280;11852;50.082;18.554;2023-01-29T06:09:32;99456.99;;;-0.5;63.58
23361;BME280;11852;50.082;18.554;2023-01-29T06:10:39;99457.5;;;-0.45;63.65
23361;BME280;11852;50.082;18.554;2023-01-29T06:11:46;99456.0;;;-0.43;63.92
23361;BME280;11852;50.082;18.554;2023-01-29T06:12:55;99459.5;;;-0.43;63.37
23361;BME280;11852;50.082;18.554;2023-01-29T06:14:02;99459.5;;;-0.34;63.18
23361;BME280;11852;50.082;18.554;2023-01-29T06:15:10;99456.5;;;-0.44;63.44
23361;BME280;11852;50.082;18.554;2023-01-29T06:16:18;99459.0;;;-0.34;63.39
23361;BME280;11852;50.082;18.554;2023-01-29T06:17:25;99452.5;;;-0.29;63.52
23361;BME280;11852;50.082;18.554;2023-01-29T06:18:34;99452.5;;;-0.24;63.76
23361;BME280;11852;50.082;18.554;2023-01-29T06:19:41;99451.5;;;-0.29;63.86
23361;BME280;11852;50.082;18.554;2023-01-29T06:20:48;99451.5;;;-0.28;64.11
23361;BME280;11852;50.082;18.554;2023-01-29T06:21:56;99457.5;;;-0.34;64.25
23361;BME280;11852;50.082;18.554;2023-01-29T06:23:03;99459.5;;;-0.24;63.63
23361;BME280;11852;50.082;18.554;2023-01-29T06:24:12;99458.5;;;-0.17;63.76
23361;BME280;11852;50.082;18.554;2023-01-29T06:25:19;99459.5;;;-0.15;63.78
23361;BME280;11852;50.082;18.554;2023-01-29T06:26:26;99461.5;;;-0.13;63.83
23361;BME280;11852;50.082;18.554;2023-01-29T06:27:33;99459.0;;;-0.12;63.99
23361;BME280;11852;50.082;18.554;2023-01-29T06:28:42;99460.0;;;-0.13;63.88
23361;BME280;11852;50.082;18.554;2023-01-29T06:29:50;99460.5;;;-0.11;63.82
23361;BME280;11852;50.082;18.554;2023-01-29T06:30:59;99460.5;;;-0.1;63.86
23361;BME280;11852;50.082;18.554;2023-01-29T06:32:05;99469.5;;;-0.22;63.93
23361;BME280;11852;50.082;18.554;2023-01-29T06:33:13;99469.0;;;-0.38;64.14
23361;BME280;11852;50.082;18.554;2023-01-29T06:34:21;99471.0;;;-0.24;63.99
23361;BME280;11852;50.082;18.554;2023-01-29T06:35:30;99469.49;;;-0.16;64.01
23361;BME280;11852;50.082;18.554;2023-01-29T06:36:37;99471.5;;;-0.1;64.05
23361;BME280;11852;50.082;18.554;2023-01-29T06:37:45;99471.0;;;-0.13;64.03
23361;BME280;11852;50.082;18.554;2023-01-29T06:38:52;99471.0;;;-0.08;63.83
23361;BME280;11852;50.082;18.554;2023-01-29T06:40:00;99470.49;;;-0.09;63.97
23361;BME280;11852;50.082;18.554;2023-01-29T06:41:13;99474.5;;;-0.03;63.88
23361;BME280;11852;50.082;18.554;2023-01-29T06:42:22;99474.5;;;0.02;64.04
23361;BME280;11852;50.082;18.554;2023-01-29T06:43:29;99475.0;;;0.03;64.01
23361;BME280;11852;50.082;18.554;2023-01-29T06:44:37;99470.49;;;0.05;63.99
23361;BME280;11852;50.082;18.554;2023-01-29T06:45:51;99470.49;;;-0.03;64.18
23361;BME280;11852;50.082;18.554;2023-01-29T06:46:57;99468.5;;;-0.02;64.03
23361;BME280;11852;50.082;18.554;2023-01-29T06:48:04;99469.5;;;-0.02;63.93
23361;BME280;11852;50.082;18.554;2023-01-29T06:49:12;99467.5;;;-0.04;63.81
23361;BME280;11852;50.082;18.554;2023-01-29T06:50:20;99468.5;;;0.01;63.81
23361;BME280;11852;50.082;18.554;2023-01-29T06:51:27;99472.0;;;-0.29;64.15
23361;BME280;11852;50.082;18.554;2023-01-29T06:52:35;99469.49;;;-0.16;64.1
23361;BME280;11852;50.082;18.554;2023-01-29T06:53:49;99471.5;;;-0.16;64.23
23361;BME280;11852;50.082;18.554;2023-01-29T06:55:02;99473.0;;;-0.07;64.24
23361;BME280;11852;50.082;18.554;2023-01-29T06:56:09;99475.5;;;-0.02;64.32
23361;BME280;11852;50.082;18.554;2023-01-29T06:57:16;99479.51;;;-0.03;64.41
23361;BME280;11852;50.082;18.554;2023-01-29T06:58:24;99482.5;;;-0.17;64.69
23361;BME280;11852;50.082;18.554;2023-01-29T06:59:30;99486.5;;;-0.22;64.61
23361;BME280;11852;50.082;18.554;2023-01-29T07:00:38;99488.5;;;-0.28;64.88
23361;BME280;11852;50.082;18.554;2023-01-29T07:01:45;99486.0;;;-0.41;65.24
23361;BME280;11852;50.082;18.554;2023-01-29T07:02:53;99486.5;;;-0.56;65.56
23361;BME280;11852;50.082;18.554;2023-01-29T07:04:00;99487.0;;;-0.62;65.86
23361;BME280;11852;50.082;18.554;2023-01-29T07:05:08;99488.0;;;-0.56;65.86
23361;BME280;11852;50.082;18.554;2023-01-29T07:06:16;99488.5;;;-0.64;66.18
23361;BME280;11852;50.082;18.554;2023-01-29T07:07:24;99489.0;;;-0.5;66.1
23361;BME280;11852;50.082;18.554;2023-01-29T07:08:32;99487.0;;;-0.37;65.85
23361;BME280;11852;50.082;18.554;2023-01-29T07:09:39;99483.5;;;-0.5;66.1
23361;BME280;11852;50.082;18.554;2023-01-29T07:10:45;99484.0;;;-0.41;66.05
23361;BME280;11852;50.082;18.554;2023-01-29T07:11:52;99482.5;;;-0.35;66.07
23361;BME280;11852;50.082;18.554;2023-01-29T07:13:00;99485.0;;;-0.29;66.12
23361;BME280;11852;50.082;18.554;2023-01-29T07:14:09;99486.5;;;-0.34;66.01
23361;BME280;11852;50.082;18.554;2023-01-29T07:15:16;99491.0;;;-0.25;65.88